createdAt,value
2023-01-11T00:01:45.375Z,31.00
2023-01-11T00:04:57.609Z,28.73
2023-01-11T00:08:10.264Z,28.68
2023-01-11T00:11:24.389Z,29.20
2023-01-11T00:14:36.589Z,29.10
2023-01-11T00:17:49.042Z,28.65
2023-01-11T00:21:01.387Z,26.93
2023-01-11T00:24:14.485Z,27.08
2023-01-11T00:27:26.740Z,26.88
2023-01-11T00:30:40.033Z,28.00
2023-01-11T00:33:52.515Z,26.35
2023-01-11T00:37:05.769Z,25.73
2023-01-11T00:40:19.641Z,23.80
2023-01-11T00:43:45.400Z,26.08
2023-01-11T00:47:12.236Z,25.73
2023-01-11T00:50:24.970Z,25.35
2023-01-11T00:53:37.206Z,24.05
2023-01-11T00:56:49.452Z,23.25
2023-01-11T01:00:02.148Z,24.85
2023-01-11T01:03:14.903Z,26.35
2023-01-11T01:06:27.533Z,25.20
2023-01-11T01:09:40.087Z,24.40
2023-01-11T01:13:07.176Z,23.20
2023-01-11T01:16:19.684Z,24.48
2023-01-11T01:19:33.082Z,26.48
2023-01-11T01:22:45.648Z,24.33
2023-01-11T01:25:58.020Z,23.75
2023-01-11T01:29:11.840Z,23.20
2023-01-11T01:32:24.201Z,22.30
2023-01-11T01:35:36.548Z,25.70
2023-01-11T01:38:48.881Z,22.63
2023-01-11T01:42:01.281Z,21.03
2023-01-11T01:45:28.860Z,19.33
2023-01-11T01:51:56.077Z,22.18
2023-01-11T01:55:14.447Z,21.30
2023-01-11T01:58:32.984Z,20.38
2023-01-11T02:01:54.838Z,21.48
2023-01-11T02:05:07.725Z,20.30
2023-01-11T02:08:25.773Z,20.20
2023-01-11T02:11:41.318Z,19.85
2023-01-11T02:14:55.278Z,19.88
2023-01-11T02:18:07.623Z,18.98
2023-01-11T02:21:30.198Z,20.25
2023-01-11T02:25:09.722Z,20.35
2023-01-11T02:28:25.720Z,20.23
2023-01-11T02:31:44.229Z,18.43
2023-01-11T02:35:03.298Z,18.83
2023-01-11T02:38:21.790Z,19.95
2023-01-11T02:41:42.495Z,20.60
2023-01-11T02:45:08.359Z,21.15
2023-01-11T02:48:28.620Z,20.80
2023-01-11T02:51:47.504Z,22.03
2023-01-11T02:55:03.922Z,23.20
2023-01-11T02:58:18.609Z,24.35
2023-01-11T03:01:31.168Z,24.15
2023-01-11T03:04:46.356Z,24.53
2023-01-11T03:08:06.255Z,24.03
2023-01-11T03:11:31.444Z,24.55
2023-01-11T03:14:52.747Z,27.00
2023-01-11T03:18:14.946Z,27.65
2023-01-11T03:21:42.678Z,28.00
2023-01-11T03:24:59.955Z,29.35
2023-01-11T03:28:18.823Z,32.93
2023-01-11T03:31:37.284Z,33.50
2023-01-11T03:34:56.336Z,33.50
2023-01-11T03:38:14.061Z,32.30
2023-01-11T03:41:31.695Z,31.83
2023-01-11T03:44:48.995Z,35.03
2023-01-11T03:48:04.009Z,35.25
2023-01-11T03:51:19.756Z,34.73
2023-01-11T03:54:34.971Z,34.75
2023-01-11T03:57:51.650Z,35.53
2023-01-11T04:01:04.963Z,36.98
2023-01-11T04:04:17.046Z,36.08
2023-01-11T04:07:29.363Z,38.80
2023-01-11T04:10:41.704Z,37.08
2023-01-11T04:13:55.746Z,34.48
2023-01-11T04:17:08.813Z,38.55
2023-01-11T04:20:21.510Z,39.63
2023-01-11T04:23:33.771Z,39.60
2023-01-11T04:26:46.219Z,38.10
2023-01-11T04:29:58.609Z,39.73
2023-01-11T04:33:13.156Z,41.75
2023-01-11T04:36:25.627Z,45.25
2023-01-11T04:39:37.808Z,45.73
2023-01-11T04:42:52.279Z,42.33
2023-01-11T04:46:07.700Z,42.13
2023-01-11T04:49:20.599Z,45.95
2023-01-11T04:52:33.120Z,51.05
2023-01-11T04:55:46.713Z,47.35
2023-01-11T04:59:00.139Z,45.25
2023-01-11T05:02:12.864Z,43.30
2023-01-11T05:05:25.185Z,46.65
2023-01-11T05:08:38.421Z,46.33
2023-01-11T05:11:51.241Z,43.30
2023-01-11T05:15:06.116Z,41.73
2023-01-11T05:18:18.430Z,40.50
2023-01-11T05:21:33.645Z,40.75
2023-01-11T05:24:45.908Z,40.85
2023-01-11T05:27:58.219Z,39.25
2023-01-11T05:31:11.185Z,39.55
2023-01-11T05:34:24.412Z,36.25
2023-01-11T05:37:37.270Z,38.43
2023-01-11T05:40:49.437Z,38.83
2023-01-11T05:44:16.649Z,38.68
2023-01-11T05:47:28.950Z,35.95
2023-01-11T05:50:41.515Z,34.88
2023-01-11T05:53:54.018Z,37.95
2023-01-11T05:57:08.653Z,39.25
2023-01-11T06:00:23.630Z,39.88
2023-01-11T06:03:36.186Z,39.83
2023-01-11T06:06:48.437Z,38.58
2023-01-11T06:10:00.722Z,36.40
2023-01-11T06:13:29.823Z,38.35
2023-01-11T06:16:42.333Z,37.88
2023-01-11T06:19:54.631Z,35.18
2023-01-11T06:23:07.117Z,35.83
2023-01-11T06:26:22.440Z,34.95
2023-01-11T06:29:34.817Z,38.05
2023-01-11T06:32:47.015Z,37.55
2023-01-11T06:36:00.129Z,36.40
2023-01-11T06:39:12.873Z,35.50
2023-01-11T06:42:25.256Z,34.55
2023-01-11T06:45:38.387Z,35.50
2023-01-11T06:48:51.514Z,34.53
2023-01-11T06:52:04.188Z,37.55
2023-01-11T06:55:17.811Z,35.93
2023-01-11T06:58:31.586Z,36.15
2023-01-11T07:01:44.251Z,36.23
2023-01-11T07:04:56.736Z,34.13
2023-01-11T07:08:09.965Z,33.35
2023-01-11T07:11:22.542Z,35.25
2023-01-11T07:14:35.127Z,37.15
2023-01-11T07:17:49.478Z,35.23
2023-01-11T07:21:02.415Z,36.13
2023-01-11T07:24:15.287Z,36.73
2023-01-11T07:27:27.752Z,35.38
2023-01-11T07:30:56.894Z,37.00
2023-01-11T07:33:59.640Z,38.25
2023-01-11T07:37:28.672Z,36.10
2023-01-11T07:40:27.755Z,36.35
2023-01-11T07:43:40.064Z,34.50
2023-01-11T07:46:52.603Z,34.38
2023-01-11T07:50:05.225Z,37.28
2023-01-11T07:53:19.037Z,35.58
2023-01-11T07:56:31.441Z,35.28
2023-01-11T07:59:43.605Z,33.45
2023-01-11T08:02:59.343Z,33.98
2023-01-11T08:06:14.564Z,35.65
2023-01-11T08:09:27.218Z,37.55
2023-01-11T08:12:53.796Z,187.20
2023-01-11T08:16:07.052Z,41.20
2023-01-11T08:19:19.357Z,36.85
2023-01-11T08:22:31.550Z,33.00
2023-01-11T08:25:44.198Z,35.68
2023-01-11T08:28:56.907Z,36.23
2023-01-11T08:32:09.376Z,33.93
2023-01-11T08:35:22.163Z,34.25
2023-01-11T08:38:34.422Z,34.48
2023-01-11T08:41:46.692Z,32.90
2023-01-11T08:44:59.132Z,33.40
2023-01-11T08:48:12.907Z,32.95
2023-01-11T08:51:25.281Z,35.15
2023-01-11T08:54:37.553Z,36.03
2023-01-11T08:57:49.828Z,36.23
2023-01-11T09:01:06.951Z,37.43
2023-01-11T09:07:31.719Z,38.45
2023-01-11T09:10:44.395Z,40.25
2023-01-11T09:13:56.566Z,34.43
2023-01-11T09:17:08.879Z,36.13
2023-01-11T09:20:22.199Z,51.65
2023-01-11T09:23:34.566Z,20.48
2023-01-11T09:26:46.918Z,17.65
2023-01-11T09:29:59.419Z,17.13
2023-01-11T09:33:11.934Z,17.68
2023-01-11T09:36:26.236Z,19.05
2023-01-11T09:39:39.220Z,18.38
2023-01-11T09:42:56.423Z,19.88
2023-01-11T09:46:12.762Z,21.45
2023-01-11T09:49:29.688Z,21.95
2023-01-11T09:52:47.454Z,23.43
2023-01-11T09:56:02.971Z,23.45
2023-01-11T09:59:22.425Z,20.98
2023-01-11T10:02:41.832Z,21.50
2023-01-11T10:06:09.138Z,21.65
2023-01-11T10:18:29.328Z,21.25
2023-01-11T10:19:42.282Z,20.68
2023-01-11T10:23:00.219Z,16.03
2023-01-11T10:26:15.029Z,18.58
2023-01-11T10:29:50.465Z,16.85
2023-01-11T10:33:08.418Z,17.38
2023-01-11T10:36:32.583Z,15.50
2023-01-11T10:39:57.607Z,15.98
2023-01-11T10:43:19.300Z,14.88
2023-01-11T10:46:34.546Z,16.38
2023-01-11T10:49:55.986Z,14.68
2023-01-11T10:53:17.174Z,15.73
2023-01-11T10:56:37.242Z,15.53
2023-01-11T11:00:17.627Z,15.90
2023-01-11T11:04:10.759Z,14.70
2023-01-11T11:07:31.133Z,14.85
2023-01-11T11:10:49.790Z,14.00
2023-01-11T11:14:07.428Z,13.78
2023-01-11T11:17:28.007Z,14.55
2023-01-11T11:20:44.216Z,13.38
2023-01-11T11:24:01.767Z,14.05
2023-01-11T11:27:25.723Z,12.93
2023-01-11T11:30:41.271Z,10.88
2023-01-11T11:33:54.149Z,11.35
2023-01-11T11:37:06.914Z,10.50
2023-01-11T11:40:37.019Z,8.78
2023-01-11T11:43:51.244Z,9.73
2023-01-11T11:47:08.981Z,8.58
2023-01-11T11:50:45.056Z,9.13
2023-01-11T11:53:55.776Z,7.95
2023-01-11T11:57:21.796Z,9.83
2023-01-11T12:00:42.676Z,9.68
2023-01-11T12:03:56.609Z,9.53
2023-01-11T12:07:19.454Z,11.15
2023-01-11T12:10:33.563Z,9.93
2023-01-11T12:13:47.072Z,9.50
2023-01-11T12:16:59.272Z,8.95
2023-01-11T12:20:40.996Z,8.98
2023-01-11T12:23:53.541Z,8.75
2023-01-11T12:27:13.035Z,9.23
2023-01-11T12:30:33.179Z,9.55
2023-01-11T12:33:52.281Z,9.30
2023-01-11T12:37:11.441Z,10.43
2023-01-11T12:40:30.596Z,9.98
2023-01-11T12:43:55.827Z,8.93
2023-01-11T12:47:24.351Z,10.30
2023-01-11T12:50:41.419Z,8.18
2023-01-11T12:57:29.027Z,7.78
2023-01-11T13:01:16.498Z,7.95
2023-01-11T13:05:05.015Z,7.30
2023-01-11T13:11:43.641Z,8.28
2023-01-11T13:15:13.549Z,8.40
2023-01-11T13:18:34.750Z,8.40
2023-01-11T13:21:55.728Z,7.43
2023-01-11T13:25:17.406Z,8.50
2023-01-11T13:28:38.045Z,9.15
2023-01-11T13:31:54.386Z,8.78
2023-01-11T13:35:11.739Z,8.53
2023-01-11T13:38:34.789Z,11.10
2023-01-11T13:41:51.987Z,8.70
2023-01-11T13:48:22.966Z,8.65
2023-01-11T13:51:41.966Z,8.88
2023-01-11T13:57:59.504Z,7.98
2023-01-11T14:01:17.116Z,8.90
2023-01-11T14:04:34.577Z,8.78
2023-01-11T14:08:02.179Z,10.40
2023-01-11T14:11:21.020Z,9.98
2023-01-11T14:23:41.132Z,9.93
2023-01-11T14:27:11.592Z,13.15
2023-01-11T14:30:48.870Z,10.30
2023-01-11T14:35:01.493Z,10.40
2023-01-11T14:39:03.216Z,17.73
2023-01-11T14:42:53.989Z,11.15
2023-01-11T14:46:38.568Z,12.40
2023-01-11T14:50:06.595Z,11.13
2023-01-11T14:53:23.580Z,11.58
2023-01-11T14:56:59.162Z,12.88
2023-01-11T15:00:34.338Z,12.18
2023-01-11T15:03:57.617Z,12.60
2023-01-11T15:07:27.770Z,11.63
2023-01-11T15:11:05.476Z,11.55
2023-01-11T15:14:38.185Z,17.08
2023-01-11T15:18:20.480Z,10.93
2023-01-11T15:21:34.087Z,10.68
2023-01-11T15:24:49.557Z,12.20
2023-01-11T15:28:03.592Z,12.95
2023-01-11T15:31:44.164Z,12.65
2023-01-11T15:34:58.333Z,14.45
2023-01-11T15:38:18.101Z,14.93
2023-01-11T15:41:54.439Z,13.63
2023-01-11T15:46:00.151Z,16.93
2023-01-11T15:49:45.534Z,17.18
2023-01-11T15:53:42.699Z,23.65
2023-01-11T15:57:28.826Z,23.20
2023-01-11T16:10:44.549Z,20.85
2023-01-11T16:14:34.388Z,20.18
2023-01-11T16:17:50.650Z,20.33
2023-01-11T16:21:12.838Z,18.53
2023-01-11T16:24:29.677Z,21.33
2023-01-11T16:27:42.895Z,26.60
2023-01-11T16:31:03.808Z,27.43
2023-01-11T16:34:20.971Z,31.25
2023-01-11T16:40:51.869Z,28.85
2023-01-11T16:44:09.150Z,31.78
2023-01-11T16:47:24.327Z,31.98
2023-01-11T16:50:36.999Z,33.30
2023-01-11T16:53:53.915Z,36.10
2023-01-11T16:57:08.111Z,31.68
2023-01-11T17:00:34.943Z,28.03
2023-01-11T17:03:55.464Z,30.10
2023-01-11T17:07:18.487Z,29.43
2023-01-11T17:10:33.502Z,30.35
2023-01-11T17:14:31.788Z,31.23
2023-01-11T17:17:46.705Z,32.10
2023-01-11T17:21:01.706Z,27.95
2023-01-11T17:24:18.393Z,29.33
2023-01-11T17:27:35.742Z,32.73
2023-01-11T17:30:52.471Z,32.68
2023-01-11T17:34:20.531Z,35.40
2023-01-11T17:37:33.108Z,35.70
2023-01-11T17:40:47.064Z,33.78
2023-01-11T17:44:14.089Z,35.55
2023-01-11T17:47:26.776Z,36.25
2023-01-11T17:50:42.901Z,37.03
2023-01-11T17:53:58.093Z,37.10
2023-01-11T17:57:11.395Z,34.58
2023-01-11T18:00:35.359Z,35.08
2023-01-11T18:03:52.773Z,31.30
2023-01-11T18:07:15.853Z,31.03
2023-01-11T18:10:32.749Z,33.33
2023-01-11T18:13:45.108Z,32.60
2023-01-11T18:17:10.075Z,32.53
2023-01-11T18:20:43.890Z,32.38
2023-01-11T18:23:56.790Z,33.68
2023-01-11T18:27:32.478Z,34.78
2023-01-11T18:30:46.780Z,36.53
2023-01-11T18:33:59.395Z,32.60
2023-01-11T18:37:13.840Z,32.88
2023-01-11T18:40:27.270Z,33.20
2023-01-11T18:43:39.630Z,34.05
2023-01-11T18:46:51.941Z,36.13
2023-01-11T18:50:05.271Z,34.83
2023-01-11T18:53:20.321Z,35.08
2023-01-11T18:56:32.976Z,37.65
2023-01-11T18:59:45.397Z,34.75
2023-01-11T19:02:57.946Z,34.80
2023-01-11T19:06:12.096Z,31.48
2023-01-11T19:09:24.447Z,34.03
2023-01-11T19:12:36.750Z,31.28
2023-01-11T19:15:49.102Z,32.80
2023-01-11T19:19:03.008Z,32.05
2023-01-11T19:22:16.412Z,33.03
2023-01-11T19:25:29.066Z,30.45
2023-01-11T19:28:43.385Z,28.15
2023-01-11T19:31:56.498Z,28.43
2023-01-11T19:35:09.060Z,30.25
2023-01-11T19:38:21.575Z,33.48
2023-01-11T19:41:35.972Z,34.00
2023-01-11T19:44:48.387Z,31.93
2023-01-11T19:48:00.667Z,33.53
2023-01-11T19:51:16.177Z,30.95
2023-01-11T19:54:29.406Z,32.78
2023-01-11T19:57:41.907Z,32.18
2023-01-11T20:00:54.253Z,29.20
2023-01-11T20:04:07.403Z,31.45
2023-01-11T20:07:21.290Z,27.85
2023-01-11T20:10:33.897Z,30.93
2023-01-11T20:13:49.407Z,32.68
2023-01-11T20:17:01.827Z,36.95
2023-01-11T20:20:17.337Z,31.58
2023-01-11T20:23:30.338Z,32.10
2023-01-11T20:26:42.745Z,34.58
2023-01-11T20:29:55.219Z,32.95
2023-01-11T20:33:10.112Z,32.88
2023-01-11T20:36:24.492Z,31.38
2023-01-11T20:39:36.859Z,33.25
2023-01-11T20:42:49.217Z,32.20
2023-01-11T20:46:04.589Z,33.20
2023-01-11T20:49:17.838Z,34.93
2023-01-11T20:52:30.412Z,32.68
2023-01-11T20:55:45.578Z,34.55
2023-01-11T20:58:58.222Z,32.43
2023-01-11T21:02:10.708Z,31.20
2023-01-11T21:05:23.497Z,30.33
2023-01-11T21:08:35.888Z,30.75
2023-01-11T21:11:50.934Z,30.48
2023-01-11T21:15:03.685Z,27.23
2023-01-11T21:18:16.270Z,27.58
2023-01-11T21:21:29.083Z,27.88
2023-01-11T21:24:42.017Z,26.38
2023-01-11T21:27:54.453Z,29.23
2023-01-11T21:31:10.775Z,31.55
2023-01-11T21:34:23.179Z,32.80
2023-01-11T21:37:35.428Z,33.10
2023-01-11T21:40:47.814Z,32.33
2023-01-11T21:44:00.235Z,36.58
2023-01-11T21:47:14.791Z,41.33
2023-01-11T21:50:27.131Z,44.65
2023-01-11T21:53:40.393Z,46.53
2023-01-11T21:56:53.267Z,45.20
2023-01-11T22:00:08.887Z,43.40
2023-01-11T22:03:32.063Z,41.23
2023-01-11T22:06:47.382Z,39.10
2023-01-11T22:10:04.822Z,41.05
2023-01-11T22:13:14.601Z,41.05
2023-01-11T22:16:27.021Z,42.73
2023-01-11T22:19:39.426Z,42.08
2023-01-11T22:22:52.003Z,43.70
2023-01-11T22:26:08.786Z,45.48
2023-01-11T22:29:21.039Z,45.38
2023-01-11T22:32:35.561Z,39.93
2023-01-11T22:35:47.792Z,37.40
2023-01-11T22:39:00.414Z,38.68
2023-01-11T22:42:13.272Z,38.40
2023-01-11T22:45:25.896Z,37.03
2023-01-11T22:48:38.326Z,36.03
2023-01-11T22:51:51.455Z,35.60
2023-01-11T22:55:03.842Z,38.20
2023-01-11T22:58:16.181Z,39.73
2023-01-11T23:01:31.111Z,37.45
2023-01-11T23:04:43.501Z,34.40
2023-01-11T23:07:55.777Z,35.73
2023-01-11T23:11:08.438Z,36.15
2023-01-11T23:14:23.709Z,37.43
2023-01-11T23:17:35.923Z,36.15
2023-01-11T23:20:48.295Z,35.08
2023-01-11T23:24:00.930Z,34.48
2023-01-11T23:27:13.447Z,35.00
2023-01-11T23:30:26.379Z,37.10
2023-01-11T23:33:38.595Z,35.58
2023-01-11T23:36:51.183Z,34.38
2023-01-11T23:40:03.535Z,35.85
2023-01-11T23:43:15.707Z,36.18
2023-01-11T23:46:42.257Z,36.15
2023-01-11T23:49:57.721Z,34.20
2023-01-11T23:53:10.025Z,32.25
2023-01-11T23:56:23.696Z,32.75
2023-01-11T23:59:36.159Z,32.58
